Aviation Digital Data Service (ADDS)

Output produced by METARs form (1230 UTC 22 March 2019)
found at http://www.aviationweather.gov/metar/data/
 
METAR text: ZHHH 221200Z 05002MPS 020V080 7000 -RA SCT040 08/05 Q1025 RERA NOSIG
Conditions at: ZHHH (WUHAN/NANHU , CN) observed 1200 UTC 22 March 2019
Temperature: 8.0°C (46°F)
Dewpoint: 5.0°C (41°F) [RH = 81%]
Pressure (altimeter): 30.27 inches Hg (1025.0 mb)
Winds: from the NE (50 degrees) at 5 MPH (4 knots; 2.1 m/s)
Visibility: 4 miles ( 7 km)
Ceiling: at least 12,000 feet AGL
Clouds: scattered clouds at 4000 feet AGL
Weather: -RA  (light rain)

METAR text: ZHHH 221100Z 03005MPS 7000 -RA SCT040 09/06 Q1024 NOSIG
Conditions at: ZHHH (WUHAN/NANHU , CN) observed 1100 UTC 22 March 2019
Temperature: 9.0°C (48°F)
Dewpoint: 6.0°C (43°F) [RH = 81%]
Pressure (altimeter): 30.24 inches Hg (1024.0 mb)
Winds: from the NNE (30 degrees) at 12 MPH (10 knots; 5.1 m/s)
Visibility: 4 miles ( 7 km)
Ceiling: at least 12,000 feet AGL
Clouds: scattered clouds at 4000 feet AGL
Weather: -RA  (light rain)

METAR text: ZHHH 221000Z 02005MPS 5000 -RA BR SCT040 09/06 Q1023 RERA NOSIG
Conditions at: ZHHH (WUHAN/NANHU , CN) observed 1000 UTC 22 March 2019
Temperature: 9.0°C (48°F)
Dewpoint: 6.0°C (43°F) [RH = 81%]
Pressure (altimeter): 30.21 inches Hg (1023.0 mb)
Winds: from the NNE (20 degrees) at 12 MPH (10 knots; 5.1 m/s)
Visibility: 3 miles ( 5 km)
Ceiling: at least 12,000 feet AGL
Clouds: scattered clouds at 4000 feet AGL
Weather: -RA BR  (light rain, mist)

METAR text: ZHHH 220900Z 01004MPS 5000 RA BR SCT040 10/07 Q1022 BECMG TL1040 -RA
Conditions at: ZHHH (WUHAN/NANHU , CN) observed 0900 UTC 22 March 2019
Temperature: 10.0°C (50°F)
Dewpoint: 7.0°C (45°F) [RH = 82%]
Pressure (altimeter): 30.18 inches Hg (1022.0 mb)
Winds: from the N (10 degrees) at 9 MPH (8 knots; 4.1 m/s)
Visibility: 3 miles ( 5 km)
Ceiling: at least 12,000 feet AGL
Clouds: scattered clouds at 4000 feet AGL
Weather: RA BR  (moderate rain, mist)

METAR text: ZHHH 220800Z 02004MPS 7000 -RA SCT033 11/06 Q1022 NOSIG
Conditions at: ZHHH (WUHAN/NANHU , CN) observed 0800 UTC 22 March 2019
Temperature: 11.0°C (52°F)
Dewpoint: 6.0°C (43°F) [RH = 71%]
Pressure (altimeter): 30.18 inches Hg (1022.0 mb)
Winds: from the NNE (20 degrees) at 9 MPH (8 knots; 4.1 m/s)
Visibility: 4 miles ( 7 km)
Ceiling: at least 12,000 feet AGL
Clouds: scattered clouds at 3300 feet AGL
Weather: -RA  (light rain)

METAR text: ZHHH 220700Z 01005MPS 7000 -RA SCT040 10/06 Q1021 NOSIG
Conditions at: ZHHH (WUHAN/NANHU , CN) observed 0700 UTC 22 March 2019
Temperature: 10.0°C (50°F)
Dewpoint: 6.0°C (43°F) [RH = 76%]
Pressure (altimeter): 30.15 inches Hg (1021.0 mb)
Winds: from the N (10 degrees) at 12 MPH (10 knots; 5.1 m/s)
Visibility: 4 miles ( 7 km)
Ceiling: at least 12,000 feet AGL
Clouds: scattered clouds at 4000 feet AGL
Weather: -RA  (light rain)

METAR text: ZHHH 220600Z 02004MPS 9999 -RA NSC 11/05 Q1022 NOSIG
Conditions at: ZHHH (WUHAN/NANHU , CN) observed 0600 UTC 22 March 2019
Temperature: 11.0°C (52°F)
Dewpoint: 5.0°C (41°F) [RH = 66%]
Pressure (altimeter): 30.18 inches Hg (1022.0 mb)
Winds: from the NNE (20 degrees) at 9 MPH (8 knots; 4.1 m/s)
Visibility: 6 or more miles (10+ km)
Ceiling: at least 12,000 feet AGL
Clouds: sky clear below 12,000 feet AGL
Weather: -RA  (light rain)

METAR text: ZHHH 220500Z 02004MPS 340V040 9999 -RA NSC 11/04 Q1022 NOSIG
Conditions at: ZHHH (WUHAN/NANHU , CN) observed 0500 UTC 22 March 2019
Temperature: 11.0°C (52°F)
Dewpoint: 4.0°C (39°F) [RH = 62%]
Pressure (altimeter): 30.18 inches Hg (1022.0 mb)
Winds: from the NNE (20 degrees) at 9 MPH (8 knots; 4.1 m/s)
Visibility: 6 or more miles (10+ km)
Ceiling: at least 12,000 feet AGL
Clouds: sky clear below 12,000 feet AGL
Weather: -RA  (light rain)

METAR text: ZHHH 220400Z 03005MPS CAVOK 11/03 Q1023 NOSIG
Conditions at: ZHHH (WUHAN/NANHU , CN) observed 0400 UTC 22 March 2019
Temperature: 11.0°C (52°F)
Dewpoint: 3.0°C (37°F) [RH = 58%]
Pressure (altimeter): 30.21 inches Hg (1023.0 mb)
Winds: from the NNE (30 degrees) at 12 MPH (10 knots; 5.1 m/s)
Visibility: 6 or more miles (10+ km)
Ceiling: ceiling and visibility are OK
Clouds: unknown
Weather: no significant weather observed at this time

METAR text: ZHHH 220300Z 02005MPS CAVOK 10/03 Q1023 NOSIG
Conditions at: ZHHH (WUHAN/NANHU , CN) observed 0300 UTC 22 March 2019
Temperature: 10.0°C (50°F)
Dewpoint: 3.0°C (37°F) [RH = 62%]
Pressure (altimeter): 30.21 inches Hg (1023.0 mb)
Winds: from the NNE (20 degrees) at 12 MPH (10 knots; 5.1 m/s)
Visibility: 6 or more miles (10+ km)
Ceiling: ceiling and visibility are OK
Clouds: unknown
Weather: no significant weather observed at this time

METAR text: ZHHH 220200Z 04005MPS 9999 SCT040 10/02 Q1023 NOSIG
Conditions at: ZHHH (WUHAN/NANHU , CN) observed 0200 UTC 22 March 2019
Temperature: 10.0°C (50°F)
Dewpoint: 2.0°C (36°F) [RH = 57%]
Pressure (altimeter): 30.21 inches Hg (1023.0 mb)
Winds: from the NE (40 degrees) at 12 MPH (10 knots; 5.1 m/s)
Visibility: 6 or more miles (10+ km)
Ceiling: at least 12,000 feet AGL
Clouds: scattered clouds at 4000 feet AGL
Weather: no significant weather observed at this time

METAR text: ZHHH 220100Z 04005MPS 9999 SCT040 10/03 Q1023 NOSIG
Conditions at: ZHHH (WUHAN/NANHU , CN) observed 0100 UTC 22 March 2019
Temperature: 10.0°C (50°F)
Dewpoint: 3.0°C (37°F) [RH = 62%]
Pressure (altimeter): 30.21 inches Hg (1023.0 mb)
Winds: from the NE (40 degrees) at 12 MPH (10 knots; 5.1 m/s)
Visibility: 6 or more miles (10+ km)
Ceiling: at least 12,000 feet AGL
Clouds: scattered clouds at 4000 feet AGL
Weather: no significant weather observed at this time

METAR text: ZHHH 220000Z 03004MPS 9999 -RA SCT040 09/04 Q1022 NOSIG
Conditions at: ZHHH (WUHAN/NANHU , CN) observed 0000 UTC 22 March 2019
Temperature: 9.0°C (48°F)
Dewpoint: 4.0°C (39°F) [RH = 71%]
Pressure (altimeter): 30.18 inches Hg (1022.0 mb)
Winds: from the NNE (30 degrees) at 9 MPH (8 knots; 4.1 m/s)
Visibility: 6 or more miles (10+ km)
Ceiling: at least 12,000 feet AGL
Clouds: scattered clouds at 4000 feet AGL
Weather: -RA  (light rain)

METAR text: ZHHH 212300Z 04005MPS 9999 -RA SCT040 09/03 Q1021 NOSIG
Conditions at: ZHHH (WUHAN/NANHU , CN) observed 2300 UTC 21 March 2019
Temperature: 9.0°C (48°F)
Dewpoint: 3.0°C (37°F) [RH = 66%]
Pressure (altimeter): 30.15 inches Hg (1021.0 mb)
Winds: from the NE (40 degrees) at 12 MPH (10 knots; 5.1 m/s)
Visibility: 6 or more miles (10+ km)
Ceiling: at least 12,000 feet AGL
Clouds: scattered clouds at 4000 feet AGL
Weather: -RA  (light rain)

METAR text: ZHHH 212200Z 03005MPS CAVOK 09/03 Q1021 NOSIG
Conditions at: ZHHH (WUHAN/NANHU , CN) observed 2200 UTC 21 March 2019
Temperature: 9.0°C (48°F)
Dewpoint: 3.0°C (37°F) [RH = 66%]
Pressure (altimeter): 30.15 inches Hg (1021.0 mb)
Winds: from the NNE (30 degrees) at 12 MPH (10 knots; 5.1 m/s)
Visibility: 6 or more miles (10+ km)
Ceiling: ceiling and visibility are OK
Clouds: unknown
Weather: no significant weather observed at this time

METAR text: ZHHH 212100Z 03006MPS CAVOK 09/03 Q1020 NOSIG
Conditions at: ZHHH (WUHAN/NANHU , CN) observed 2100 UTC 21 March 2019
Temperature: 9.0°C (48°F)
Dewpoint: 3.0°C (37°F) [RH = 66%]
Pressure (altimeter): 30.12 inches Hg (1020.0 mb)
Winds: from the NNE (30 degrees) at 14 MPH (12 knots; 6.2 m/s)
Visibility: 6 or more miles (10+ km)
Ceiling: ceiling and visibility are OK
Clouds: unknown
Weather: no significant weather observed at this time

METAR text: ZHHH 212000Z 02005MPS CAVOK 09/04 Q1021 NOSIG
Conditions at: ZHHH (WUHAN/NANHU , CN) observed 2000 UTC 21 March 2019
Temperature: 9.0°C (48°F)
Dewpoint: 4.0°C (39°F) [RH = 71%]
Pressure (altimeter): 30.15 inches Hg (1021.0 mb)
Winds: from the NNE (20 degrees) at 12 MPH (10 knots; 5.1 m/s)
Visibility: 6 or more miles (10+ km)
Ceiling: ceiling and visibility are OK
Clouds: unknown
Weather: no significant weather observed at this time

METAR text: ZHHH 211900Z 02005MPS CAVOK 09/04 Q1021 NOSIG
Conditions at: ZHHH (WUHAN/NANHU , CN) observed 1900 UTC 21 March 2019
Temperature: 9.0°C (48°F)
Dewpoint: 4.0°C (39°F) [RH = 71%]
Pressure (altimeter): 30.15 inches Hg (1021.0 mb)
Winds: from the NNE (20 degrees) at 12 MPH (10 knots; 5.1 m/s)
Visibility: 6 or more miles (10+ km)
Ceiling: ceiling and visibility are OK
Clouds: unknown
Weather: no significant weather observed at this time

METAR text: ZHHH 211800Z 02007MPS 9999 -RA NSC 09/05 Q1021 NOSIG
Conditions at: ZHHH (WUHAN/NANHU , CN) observed 1800 UTC 21 March 2019
Temperature: 9.0°C (48°F)
Dewpoint: 5.0°C (41°F) [RH = 76%]
Pressure (altimeter): 30.15 inches Hg (1021.0 mb)
Winds: from the NNE (20 degrees) at 16 MPH (14 knots; 7.2 m/s)
Visibility: 6 or more miles (10+ km)
Ceiling: at least 12,000 feet AGL
Clouds: sky clear below 12,000 feet AGL
Weather: -RA  (light rain)

METAR text: ZHHH 211700Z 01006MPS 8000 -RA NSC 09/06 Q1021 NOSIG
Conditions at: ZHHH (WUHAN/NANHU , CN) observed 1700 UTC 21 March 2019
Temperature: 9.0°C (48°F)
Dewpoint: 6.0°C (43°F) [RH = 81%]
Pressure (altimeter): 30.15 inches Hg (1021.0 mb)
Winds: from the N (10 degrees) at 14 MPH (12 knots; 6.2 m/s)
Visibility: 5 miles ( 8 km)
Ceiling: at least 12,000 feet AGL
Clouds: sky clear below 12,000 feet AGL
Weather: -RA  (light rain)

METAR text: ZHHH 211600Z 02007MPS 9999 -RA NSC 09/06 Q1021 NOSIG
Conditions at: ZHHH (WUHAN/NANHU , CN) observed 1600 UTC 21 March 2019
Temperature: 9.0°C (48°F)
Dewpoint: 6.0°C (43°F) [RH = 81%]
Pressure (altimeter): 30.15 inches Hg (1021.0 mb)
Winds: from the NNE (20 degrees) at 16 MPH (14 knots; 7.2 m/s)
Visibility: 6 or more miles (10+ km)
Ceiling: at least 12,000 feet AGL
Clouds: sky clear below 12,000 feet AGL
Weather: -RA  (light rain)

METAR text: ZHHH 211500Z 03008MPS CAVOK 09/06 Q1021 NOSIG
Conditions at: ZHHH (WUHAN/NANHU , CN) observed 1500 UTC 21 March 2019
Temperature: 9.0°C (48°F)
Dewpoint: 6.0°C (43°F) [RH = 81%]
Pressure (altimeter): 30.15 inches Hg (1021.0 mb)
Winds: from the NNE (30 degrees) at 18 MPH (16 knots; 8.2 m/s)
Visibility: 6 or more miles (10+ km)
Ceiling: ceiling and visibility are OK
Clouds: unknown
Weather: no significant weather observed at this time

METAR text: ZHHH 211400Z 02008MPS 340V040 9999 OVC040 09/05 Q1020 NOSIG
Conditions at: ZHHH (WUHAN/NANHU , CN) observed 1400 UTC 21 March 2019
Temperature: 9.0°C (48°F)
Dewpoint: 5.0°C (41°F) [RH = 76%]
Pressure (altimeter): 30.12 inches Hg (1020.0 mb)
Winds: from the NNE (20 degrees) at 18 MPH (16 knots; 8.2 m/s)
Visibility: 6 or more miles (10+ km)
Ceiling: 4000 feet AGL
Clouds: overcast cloud deck at 4000 feet AGL
Weather: no significant weather observed at this time

METAR text: ZHHH 211300Z 02008MPS 8000 -RA OVC040 08/05 Q1020 NOSIG
Conditions at: ZHHH (WUHAN/NANHU , CN) observed 1300 UTC 21 March 2019
Temperature: 8.0°C (46°F)
Dewpoint: 5.0°C (41°F) [RH = 81%]
Pressure (altimeter): 30.12 inches Hg (1020.0 mb)
Winds: from the NNE (20 degrees) at 18 MPH (16 knots; 8.2 m/s)
Visibility: 5 miles ( 8 km)
Ceiling: 4000 feet AGL
Clouds: overcast cloud deck at 4000 feet AGL
Weather: -RA  (light rain)

METAR text: ZHHH 211200Z 02009MPS 6000 -RA OVC040 08/05 Q1018 NOSIG
Conditions at: ZHHH (WUHAN/NANHU , CN) observed 1200 UTC 21 March 2019
Temperature: 8.0°C (46°F)
Dewpoint: 5.0°C (41°F) [RH = 81%]
Pressure (altimeter): 30.06 inches Hg (1018.0 mb)
Winds: from the NNE (20 degrees) at 20 MPH (17 knots; 8.7 m/s)
Visibility: 4 miles ( 6 km)
Ceiling: 4000 feet AGL
Clouds: overcast cloud deck at 4000 feet AGL
Weather: -RA  (light rain)

METAR text: ZHHH 211100Z 02008MPS 9999 -RA OVC040 09/05 Q1017 NOSIG
Conditions at: ZHHH (WUHAN/NANHU , CN) observed 1100 UTC 21 March 2019
Temperature: 9.0°C (48°F)
Dewpoint: 5.0°C (41°F) [RH = 76%]
Pressure (altimeter): 30.03 inches Hg (1017.0 mb)
Winds: from the NNE (20 degrees) at 18 MPH (16 knots; 8.2 m/s)
Visibility: 6 or more miles (10+ km)
Ceiling: 4000 feet AGL
Clouds: overcast cloud deck at 4000 feet AGL
Weather: -RA  (light rain)

METAR text: ZHHH 211000Z 02011MPS 9999 -RA OVC040 10/04 Q1016 NOSIG
Conditions at: ZHHH (WUHAN/NANHU , CN) observed 1000 UTC 21 March 2019
Temperature: 10.0°C (50°F)
Dewpoint: 4.0°C (39°F) [RH = 66%]
Pressure (altimeter): 30.00 inches Hg (1016.0 mb)
Winds: from the NNE (20 degrees) at 24 MPH (21 knots; 10.8 m/s)
Visibility: 6 or more miles (10+ km)
Ceiling: 4000 feet AGL
Clouds: overcast cloud deck at 4000 feet AGL
Weather: -RA  (light rain)

METAR text: ZHHH 210900Z 02011MPS 9999 -RA OVC040 11/03 Q1014 NOSIG
Conditions at: ZHHH (WUHAN/NANHU , CN) observed 0900 UTC 21 March 2019
Temperature: 11.0°C (52°F)
Dewpoint: 3.0°C (37°F) [RH = 58%]
Pressure (altimeter): 29.94 inches Hg (1014.0 mb)
Winds: from the NNE (20 degrees) at 24 MPH (21 knots; 10.8 m/s)
Visibility: 6 or more miles (10+ km)
Ceiling: 4000 feet AGL
Clouds: overcast cloud deck at 4000 feet AGL
Weather: -RA  (light rain)

METAR text: ZHHH 210800Z 02011MPS 8000 -RA NSC 13/04 Q1014 NOSIG
Conditions at: ZHHH (WUHAN/NANHU , CN) observed 0800 UTC 21 March 2019
Temperature: 13.0°C (55°F)
Dewpoint: 4.0°C (39°F) [RH = 54%]
Pressure (altimeter): 29.94 inches Hg (1014.0 mb)
Winds: from the NNE (20 degrees) at 24 MPH (21 knots; 10.8 m/s)
Visibility: 5 miles ( 8 km)
Ceiling: at least 12,000 feet AGL
Clouds: sky clear below 12,000 feet AGL
Weather: -RA  (light rain)

METAR text: ZHHH 210700Z 02010G15MPS 6000 NSC 15/07 Q1013 NOSIG
Conditions at: ZHHH (WUHAN/NANHU , CN) observed 0700 UTC 21 March 2019
Temperature: 15.0°C (59°F)
Dewpoint: 7.0°C (45°F) [RH = 59%]
Pressure (altimeter): 29.91 inches Hg (1013.0 mb)
Winds: from the NNE (20 degrees) at 22 MPH (19 knots; 9.8 m/s)
gusting to 33 MPH (29 knots; 14.9 m/s)
Visibility: 4 miles ( 6 km)
Ceiling: at least 12,000 feet AGL
Clouds: sky clear below 12,000 feet AGL
Weather: no significant weather observed at this time

METAR text: ZHHH 210600Z 03011G16MPS 8000 NSC 17/08 Q1012 NOSIG
Conditions at: ZHHH (WUHAN/NANHU , CN) observed 0600 UTC 21 March 2019
Temperature: 17.0°C (63°F)
Dewpoint: 8.0°C (46°F) [RH = 55%]
Pressure (altimeter): 29.88 inches Hg (1012.0 mb)
Winds: from the NNE (30 degrees) at 24 MPH (21 knots; 10.8 m/s)
gusting to 36 MPH (31 knots; 15.9 m/s)
Visibility: 5 miles ( 8 km)
Ceiling: at least 12,000 feet AGL
Clouds: sky clear below 12,000 feet AGL
Weather: no significant weather observed at this time

METAR text: ZHHH 210500Z 04015MPS 8000 NSC 18/08 Q1012 NOSIG
Conditions at: ZHHH (WUHAN/NANHU , CN) observed 0500 UTC 21 March 2019
Temperature: 18.0°C (64°F)
Dewpoint: 8.0°C (46°F) [RH = 52%]
Pressure (altimeter): 29.88 inches Hg (1012.0 mb)
Winds: from the NE (40 degrees) at 33 MPH (29 knots; 14.9 m/s)
Visibility: 5 miles ( 8 km)
Ceiling: at least 12,000 feet AGL
Clouds: sky clear below 12,000 feet AGL
Weather: no significant weather observed at this time

METAR text: ZHHH 210400Z 04013MPS 6000 NSC 18/09 Q1013 NOSIG
Conditions at: ZHHH (WUHAN/NANHU , CN) observed 0400 UTC 21 March 2019
Temperature: 18.0°C (64°F)
Dewpoint: 9.0°C (48°F) [RH = 56%]
Pressure (altimeter): 29.91 inches Hg (1013.0 mb)
Winds: from the NE (40 degrees) at 29 MPH (25 knots; 12.9 m/s)
Visibility: 4 miles ( 6 km)
Ceiling: at least 12,000 feet AGL
Clouds: sky clear below 12,000 feet AGL
Weather: no significant weather observed at this time

METAR text: ZHHH 210300Z 02012MPS 4000 HZ NSC 20/14 Q1013 NOSIG
Conditions at: ZHHH (WUHAN/NANHU , CN) observed 0300 UTC 21 March 2019
Temperature: 20.0°C (68°F)
Dewpoint: 14.0°C (57°F) [RH = 68%]
Pressure (altimeter): 29.91 inches Hg (1013.0 mb)
Winds: from the NNE (20 degrees) at 26 MPH (23 knots; 11.8 m/s)
Visibility: 2.49 miles (4.01 km)
Ceiling: at least 12,000 feet AGL
Clouds: sky clear below 12,000 feet AGL
Weather: HZ  (haze)

METAR text: ZHHH 210200Z 05011MPS 6000 NSC 21/13 Q1011 NOSIG
Conditions at: ZHHH (WUHAN/NANHU , CN) observed 0200 UTC 21 March 2019
Temperature: 21.0°C (70°F)
Dewpoint: 13.0°C (55°F) [RH = 60%]
Pressure (altimeter): 29.85 inches Hg (1011.0 mb)
Winds: from the NE (50 degrees) at 24 MPH (21 knots; 10.8 m/s)
Visibility: 4 miles ( 6 km)
Ceiling: at least 12,000 feet AGL
Clouds: sky clear below 12,000 feet AGL
Weather: no significant weather observed at this time

METAR text: ZHHH 210100Z 05007MPS 6000 NSC 18/13 Q1011 NOSIG
Conditions at: ZHHH (WUHAN/NANHU , CN) observed 0100 UTC 21 March 2019
Temperature: 18.0°C (64°F)
Dewpoint: 13.0°C (55°F) [RH = 73%]
Pressure (altimeter): 29.85 inches Hg (1011.0 mb)
Winds: from the NE (50 degrees) at 16 MPH (14 knots; 7.2 m/s)
Visibility: 4 miles ( 6 km)
Ceiling: at least 12,000 feet AGL
Clouds: sky clear below 12,000 feet AGL
Weather: no significant weather observed at this time

Forecast for: ZHHH (WUHAN/NANHU , CN)
Text: TAF ZHHH 220918Z 2212/2312 03004MPS 3000 -RA BR SCT020 TX12/2307Z TN06/2222Z
Forecast period: 1200 to 1400 UTC 22 March 2019
Forecast type: FROM: standard forecast or significant change
Winds: from the NNE (30 degrees) at 9 MPH (8 knots; 4.1 m/s)
Visibility: 1.86 miles (2.99 km)
Ceiling: at least 12,000 feet AGL
Clouds: scattered clouds at 2000 feet AGL
Weather: -RA BR  (light rain, mist)
Text: BECMG 2214/2215 4000 BR
Forecast period: 1400 UTC 22 March 2019 to 1200 UTC 23 March 2019
Forecast type: BECOMING: Conditions expected to become as follows by 1500 UTC 22 March 2019
Winds: from the NNE (30 degrees) at 9 MPH (8 knots; 4.1 m/s)
Visibility: 2.49 miles (4.01 km)
Ceiling: at least 12,000 feet AGL
Clouds: scattered clouds at 2000 feet AGL
Weather: BR  (mist)